createdAt,value
2022-10-23T00:01:38.832Z,10.80
2022-10-23T00:04:20.340Z,13.48
2022-10-23T00:06:50.637Z,11.68
2022-10-23T00:09:23.076Z,13.23
2022-10-23T00:11:53.536Z,11.32
2022-10-23T00:14:23.260Z,13.80
2022-10-23T00:16:50.710Z,11.43
2022-10-23T00:19:19.910Z,12.85
2022-10-23T00:21:48.183Z,13.27
2022-10-23T00:24:18.512Z,9.70
2022-10-23T00:26:48.185Z,11.82
2022-10-23T00:29:15.672Z,12.25
2022-10-23T00:31:43.510Z,13.55
2022-10-23T00:34:11.159Z,11.85
2022-10-23T00:36:39.483Z,10.10
2022-10-23T00:39:06.944Z,10.63
2022-10-23T00:41:34.863Z,11.57
2022-10-23T00:44:04.428Z,13.20
2022-10-23T00:46:32.706Z,12.43
2022-10-23T00:49:01.353Z,12.95
2022-10-23T00:51:32.535Z,14.18
2022-10-23T00:54:22.965Z,13.07
2022-10-23T00:56:51.198Z,15.57
2022-10-23T00:59:18.413Z,13.40
2022-10-23T01:01:46.020Z,14.80
2022-10-23T01:04:13.460Z,12.95
2022-10-23T01:07:03.415Z,12.32
2022-10-23T01:09:34.152Z,13.98
2022-10-23T01:12:10.969Z,13.55
2022-10-23T01:14:59.687Z,12.23
2022-10-23T01:17:42.305Z,15.05
2022-10-23T01:20:14.576Z,13.95
2022-10-23T01:23:18.738Z,13.75
2022-10-23T01:25:56.283Z,15.05
2022-10-23T01:28:34.081Z,15.63
2022-10-23T01:31:02.629Z,16.95
2022-10-23T01:33:36.778Z,15.38
2022-10-23T01:36:24.551Z,12.93
2022-10-23T01:38:52.083Z,15.02
2022-10-23T01:41:25.878Z,16.48
2022-10-23T01:44:07.417Z,17.50
2022-10-23T01:46:38.135Z,15.90
2022-10-23T01:49:08.530Z,15.60
2022-10-23T01:51:37.249Z,15.93
2022-10-23T01:54:07.949Z,17.20
2022-10-23T01:56:40.271Z,17.13
2022-10-23T01:59:13.762Z,16.17
2022-10-23T02:01:45.587Z,15.73
2022-10-23T02:04:15.647Z,15.27
2022-10-23T02:06:49.017Z,18.75
2022-10-23T02:09:17.603Z,16.92
2022-10-23T02:11:57.937Z,15.63
2022-10-23T04:30:42.827Z,8.63
2022-10-23T04:33:10.977Z,9.15
2022-10-23T04:35:38.235Z,8.57
2022-10-23T04:38:08.251Z,13.00
2022-10-23T04:40:36.558Z,8.65
2022-10-23T04:43:15.710Z,8.77
2022-10-23T04:45:46.732Z,8.85
2022-10-23T04:48:16.115Z,7.78
2022-10-23T04:50:43.602Z,10.25
2022-10-23T04:53:11.485Z,7.82
2022-10-23T04:55:53.432Z,8.85
2022-10-23T04:58:21.213Z,10.60
2022-10-23T05:00:51.035Z,7.95
2022-10-23T05:03:22.218Z,8.77
2022-10-23T05:05:53.924Z,9.23
2022-10-23T05:08:35.573Z,10.48
2022-10-23T05:11:05.588Z,12.40
2022-10-23T05:13:39.632Z,7.53
2022-10-23T05:16:13.436Z,6.20
2022-10-23T05:18:48.175Z,8.18
2022-10-23T05:21:27.706Z,8.68
2022-10-23T05:23:55.610Z,8.07
2022-10-23T05:26:22.933Z,4.50
2022-10-23T05:28:50.102Z,8.45
2022-10-23T05:31:25.211Z,7.10
2022-10-23T05:33:57.657Z,5.97
2022-10-23T05:36:25.868Z,3.15
2022-10-23T05:38:53.687Z,5.35
2022-10-23T05:41:20.944Z,3.53
2022-10-23T05:43:48.681Z,3.85
2022-10-23T05:46:16.048Z,5.15
2022-10-23T05:48:46.306Z,4.45
2022-10-23T05:51:20.214Z,4.82
2022-10-23T05:53:51.523Z,6.00
2022-10-23T05:56:20.817Z,3.33
2022-10-23T05:58:49.398Z,4.80
2022-10-23T06:01:18.543Z,8.18
2022-10-23T06:03:46.141Z,7.35
2022-10-23T06:06:22.096Z,5.80
2022-10-23T06:08:49.356Z,4.55
2022-10-23T06:11:16.661Z,4.53
2022-10-23T06:13:45.535Z,5.95
2022-10-23T06:16:20.391Z,5.60
2022-10-23T06:18:47.905Z,6.38
2022-10-23T06:21:15.821Z,4.60
2022-10-23T06:23:46.774Z,6.55
2022-10-23T06:26:15.957Z,3.75
2022-10-23T06:28:43.772Z,4.22
2022-10-23T06:31:13.534Z,5.32
2022-10-23T06:33:41.851Z,6.60
2022-10-23T06:36:10.854Z,6.65
2022-10-23T06:38:41.703Z,6.13
2022-10-23T06:41:14.910Z,4.00
2022-10-23T06:43:43.250Z,6.13
2022-10-23T06:46:10.911Z,6.25
2022-10-23T06:48:38.401Z,4.13
2022-10-23T06:51:08.246Z,5.55
2022-10-23T06:53:37.644Z,6.65
2022-10-23T06:56:06.780Z,4.20
2022-10-23T06:58:35.125Z,8.15
2022-10-23T07:01:05.080Z,8.32
2022-10-23T07:03:32.911Z,7.53
2022-10-23T07:06:01.928Z,10.40
2022-10-23T07:08:29.721Z,11.30
2022-10-23T07:10:57.951Z,9.23
2022-10-23T07:13:25.548Z,10.98
2022-10-23T07:15:52.850Z,12.20
2022-10-23T07:18:20.358Z,9.27
2022-10-23T07:20:49.520Z,12.43
2022-10-23T07:23:17.422Z,10.75
2022-10-23T07:25:45.285Z,10.82
2022-10-23T07:28:12.599Z,13.55
2022-10-23T07:30:41.427Z,11.70
2022-10-23T07:33:11.242Z,11.00
2022-10-23T07:35:42.835Z,15.07
2022-10-23T07:38:10.160Z,12.93
2022-10-23T07:40:38.217Z,11.80
2022-10-23T07:43:05.617Z,11.68
2022-10-23T07:45:33.004Z,15.73
2022-10-23T07:48:01.005Z,11.50
2022-10-23T07:50:28.498Z,13.98
2022-10-23T07:52:57.253Z,12.43
2022-10-23T07:55:24.779Z,12.98
2022-10-23T07:57:52.719Z,10.90
2022-10-23T08:00:21.410Z,9.18
2022-10-23T08:02:50.392Z,11.23
2022-10-23T08:05:19.727Z,8.52
2022-10-23T08:07:47.260Z,12.40
2022-10-23T08:10:21.633Z,8.18
2022-10-23T08:12:49.000Z,8.57
2022-10-23T08:15:16.497Z,7.65
2022-10-23T08:17:45.714Z,5.88
2022-10-23T08:20:13.962Z,6.00
2022-10-23T08:22:41.513Z,5.70
2022-10-23T08:25:12.340Z,6.75
2022-10-23T08:27:40.642Z,6.10
2022-10-23T08:30:10.692Z,4.07
2022-10-23T08:32:38.544Z,4.45
2022-10-23T08:35:06.745Z,5.90
2022-10-23T08:37:34.414Z,6.47
2022-10-23T08:40:03.313Z,4.60
2022-10-23T08:42:31.000Z,5.00
2022-10-23T08:45:27.182Z,3.03
2022-10-23T08:48:13.050Z,3.75
2022-10-23T08:50:44.454Z,3.85
2022-10-23T08:53:26.293Z,4.95
2022-10-23T08:56:18.360Z,6.80
2022-10-23T08:59:00.207Z,6.28
2022-10-23T09:01:43.668Z,4.80
2022-10-23T09:04:13.714Z,4.25
2022-10-23T09:07:00.547Z,4.82
2022-10-23T09:09:47.305Z,3.03
2022-10-23T09:12:22.008Z,7.60
2022-10-23T09:14:58.458Z,7.88
2022-10-23T09:17:34.217Z,19.48
2022-10-23T09:20:21.291Z,12.10
2022-10-23T09:22:58.717Z,11.32
2022-10-23T09:25:34.085Z,12.27
2022-10-23T09:28:05.249Z,10.48
2022-10-23T09:30:39.185Z,9.73
2022-10-23T09:33:23.889Z,7.70
2022-10-23T09:36:14.943Z,9.00
2022-10-23T09:38:45.484Z,6.15
2022-10-23T09:41:18.566Z,7.95
2022-10-23T09:43:46.235Z,8.20
2022-10-23T09:46:13.806Z,5.78
2022-10-23T09:48:44.827Z,8.27
2022-10-23T09:51:21.763Z,5.40
2022-10-23T09:53:59.246Z,6.60
2022-10-23T09:56:31.104Z,20.83
2022-10-23T09:59:13.221Z,5.28
2022-10-23T10:01:55.291Z,6.53
2022-10-23T10:04:41.953Z,5.55
2022-10-23T10:07:24.905Z,5.35
2022-10-23T10:09:56.895Z,5.65
2022-10-23T10:12:31.794Z,4.22
2022-10-23T10:15:10.324Z,5.60
2022-10-23T10:17:51.721Z,6.53
2022-10-23T10:20:41.740Z,6.75
2022-10-23T10:23:27.385Z,3.42
2022-10-23T10:26:15.794Z,5.80
2022-10-23T10:29:18.538Z,2.65
2022-10-23T10:32:05.023Z,3.92
2022-10-23T10:34:50.484Z,15.68
2022-10-23T10:37:22.776Z,7.88
2022-10-23T10:40:06.443Z,5.25
2022-10-23T10:43:11.300Z,4.68
2022-10-23T10:45:42.491Z,4.30
2022-10-23T10:48:14.082Z,5.15
2022-10-23T10:50:55.352Z,6.25
2022-10-23T10:53:41.135Z,4.75
2022-10-23T10:56:12.796Z,9.13
2022-10-23T10:58:41.733Z,18.17
2022-10-23T11:01:36.482Z,7.45
2022-10-23T11:04:24.574Z,3.83
2022-10-23T11:06:56.406Z,10.02
2022-10-23T11:09:33.740Z,3.78
2022-10-23T11:12:07.168Z,7.13
2022-10-23T11:14:34.910Z,9.02
2022-10-23T11:17:17.246Z,8.75
2022-10-23T11:19:58.123Z,6.32
2022-10-23T11:22:37.805Z,6.70
2022-10-23T11:25:26.956Z,7.22
2022-10-23T11:28:15.780Z,7.10
2022-10-23T11:31:01.418Z,11.20
2022-10-23T11:33:38.390Z,10.40
2022-10-23T11:36:17.247Z,8.88
2022-10-23T11:38:52.418Z,10.35
2022-10-23T11:41:29.657Z,7.63
2022-10-23T11:44:04.708Z,12.32
2022-10-23T11:46:38.494Z,8.90
2022-10-23T11:49:06.938Z,12.30
2022-10-23T11:51:41.811Z,18.95
2022-10-23T11:54:13.699Z,13.05
2022-10-23T11:57:17.321Z,10.70
2022-10-23T11:59:47.590Z,8.73
2022-10-23T12:02:32.083Z,13.23
2022-10-23T12:05:26.348Z,11.13
2022-10-23T12:07:57.782Z,13.88
2022-10-23T12:10:34.696Z,7.57
2022-10-23T12:13:06.399Z,8.05
2022-10-23T12:15:37.217Z,10.52
2022-10-23T12:18:14.792Z,6.82
2022-10-23T12:20:56.603Z,9.32
2022-10-23T12:23:30.411Z,9.25
2022-10-23T12:26:21.995Z,13.88
2022-10-23T12:29:21.039Z,11.48
2022-10-23T12:32:06.685Z,13.35
2022-10-23T12:34:45.625Z,13.80
2022-10-23T12:37:51.654Z,12.23
2022-10-23T12:40:19.356Z,9.60
2022-10-23T12:42:52.904Z,14.65
2022-10-23T12:45:25.998Z,13.90
2022-10-23T12:47:53.682Z,11.80
2022-10-23T12:50:25.260Z,14.75
2022-10-23T12:53:01.128Z,15.48
2022-10-23T12:55:33.639Z,12.63
2022-10-23T12:58:03.557Z,12.57
2022-10-23T13:00:31.234Z,11.88
2022-10-23T13:03:03.423Z,14.20
2022-10-23T13:05:33.592Z,13.27
2022-10-23T13:08:04.195Z,11.90
2022-10-23T13:10:33.420Z,13.15
2022-10-23T13:13:05.316Z,14.27
2022-10-23T13:15:51.510Z,11.20
2022-10-23T13:18:20.116Z,14.40
2022-10-23T13:20:53.900Z,16.98
2022-10-23T13:23:34.870Z,12.50
2022-10-23T13:26:19.838Z,16.23
2022-10-23T13:28:47.488Z,8.23
2022-10-23T13:31:15.265Z,10.45
2022-10-23T13:33:45.995Z,10.55
2022-10-23T13:36:16.944Z,11.05
2022-10-23T13:39:00.800Z,10.35
2022-10-23T13:41:31.183Z,12.50
2022-10-23T13:43:58.592Z,8.90
2022-10-23T13:46:26.820Z,7.85
2022-10-23T13:48:55.257Z,11.18
2022-10-23T13:51:29.029Z,9.85
2022-10-23T13:53:58.755Z,10.65
2022-10-23T13:56:30.366Z,8.77
2022-10-23T13:58:57.865Z,12.68
2022-10-23T14:01:30.872Z,11.73
2022-10-23T14:03:59.913Z,11.82
2022-10-23T14:06:27.470Z,13.50
2022-10-23T14:08:54.923Z,10.40
2022-10-23T14:11:23.945Z,9.80
2022-10-23T14:13:54.352Z,9.77
2022-10-23T14:16:21.877Z,12.07
2022-10-23T14:18:49.525Z,13.60
2022-10-23T14:21:22.922Z,18.13
2022-10-23T14:23:51.935Z,17.13
2022-10-23T14:26:22.629Z,17.33
2022-10-23T14:28:53.765Z,12.10
2022-10-23T14:31:23.577Z,15.52
2022-10-23T14:33:58.664Z,15.18
2022-10-23T14:36:30.981Z,15.57
2022-10-23T14:39:08.363Z,16.70
2022-10-23T14:41:35.925Z,13.77
2022-10-23T14:44:03.201Z,10.77
2022-10-23T14:46:31.145Z,11.05
2022-10-23T14:49:02.288Z,10.90
2022-10-23T14:51:30.626Z,11.63
2022-10-23T14:54:01.978Z,9.15
2022-10-23T14:56:32.161Z,10.18
2022-10-23T14:59:02.973Z,14.70
2022-10-23T15:01:45.104Z,6.95
2022-10-23T15:04:19.298Z,9.32
2022-10-23T15:06:47.382Z,6.63
2022-10-23T15:09:15.659Z,6.50
2022-10-23T15:11:43.043Z,7.85
2022-10-23T15:14:12.306Z,5.65
2022-10-23T15:16:42.654Z,5.68
2022-10-23T15:19:15.285Z,5.05
2022-10-23T15:21:47.503Z,6.10
2022-10-23T15:24:17.038Z,6.20
2022-10-23T15:26:45.191Z,5.95
2022-10-23T15:29:14.976Z,11.00
2022-10-23T15:31:48.550Z,8.68
2022-10-23T15:34:21.279Z,7.13
2022-10-23T15:36:49.430Z,8.32
2022-10-23T15:39:19.744Z,6.80
2022-10-23T15:41:47.607Z,7.28
2022-10-23T15:44:19.769Z,7.50
2022-10-23T15:46:47.242Z,8.10
2022-10-23T15:49:15.054Z,4.88
2022-10-23T15:51:42.912Z,7.97
2022-10-23T15:54:17.132Z,6.05
2022-10-23T15:56:46.028Z,6.80
2022-10-23T15:59:13.808Z,12.70
2022-10-23T16:01:41.841Z,7.85
2022-10-23T16:04:09.621Z,6.95
2022-10-23T16:06:37.637Z,7.88
2022-10-23T16:09:05.054Z,8.63
2022-10-23T16:11:35.730Z,7.35
2022-10-23T16:14:04.299Z,9.43
2022-10-23T16:16:32.798Z,14.02
2022-10-23T16:19:01.810Z,6.60
2022-10-23T16:21:32.119Z,17.90
2022-10-23T16:24:03.575Z,8.15
2022-10-23T16:26:31.743Z,8.50
2022-10-23T16:29:03.029Z,12.43
2022-10-23T16:31:31.274Z,8.88
2022-10-23T16:34:00.535Z,7.65
2022-10-23T16:36:29.099Z,34.33
2022-10-23T16:38:57.228Z,15.23
2022-10-23T16:41:24.510Z,15.70
2022-10-23T16:43:52.082Z,14.50
2022-10-23T16:46:21.137Z,19.48
2022-10-23T16:48:52.993Z,18.02
2022-10-23T16:51:25.248Z,14.52
2022-10-23T16:53:53.366Z,14.80
2022-10-23T16:56:23.252Z,15.38
2022-10-23T16:58:50.636Z,24.30
2022-10-23T17:01:21.068Z,25.38
2022-10-23T17:03:52.742Z,24.08
2022-10-23T17:06:31.805Z,26.27
2022-10-23T17:09:06.336Z,27.38
2022-10-23T17:11:35.771Z,24.45
2022-10-23T17:14:21.351Z,21.30
2022-10-23T17:16:51.424Z,24.45
2022-10-23T17:19:43.674Z,23.27
2022-10-23T17:22:12.698Z,22.80
2022-10-23T17:24:41.598Z,14.57
2022-10-23T17:27:09.350Z,13.77
2022-10-23T17:29:36.795Z,18.13
2022-10-23T17:32:04.319Z,13.13
2022-10-23T17:34:36.257Z,11.90
2022-10-23T17:37:03.947Z,14.15
2022-10-23T17:39:31.350Z,13.45
2022-10-23T17:41:59.459Z,14.25
2022-10-23T17:44:29.159Z,16.35
2022-10-23T17:46:56.819Z,18.15
2022-10-23T17:49:33.743Z,20.02
2022-10-23T17:52:03.689Z,23.70
2022-10-23T17:54:30.949Z,23.38
2022-10-23T17:56:58.398Z,28.77
2022-10-23T17:59:28.763Z,32.85
2022-10-23T18:01:58.857Z,30.33
2022-10-23T18:04:29.466Z,41.17
2022-10-23T18:06:57.023Z,38.58
2022-10-23T18:09:24.478Z,46.72
2022-10-23T18:11:52.885Z,54.83
2022-10-23T18:14:26.184Z,48.60
2022-10-23T18:16:55.897Z,46.78
2022-10-23T18:19:23.708Z,53.83
2022-10-23T18:21:50.874Z,63.50
2022-10-23T18:24:19.820Z,57.90
2022-10-23T18:26:48.288Z,62.70
2022-10-23T18:29:17.504Z,54.92
2022-10-23T18:31:45.462Z,45.10
2022-10-23T18:34:21.333Z,44.22
2022-10-23T18:36:49.289Z,46.30
2022-10-23T18:39:22.290Z,43.10
2022-10-23T18:41:55.122Z,44.80
2022-10-23T18:44:23.581Z,45.58
2022-10-23T18:46:51.667Z,43.58
2022-10-23T18:49:19.501Z,44.22
2022-10-23T18:51:47.313Z,38.58
2022-10-23T18:54:17.113Z,32.15
2022-10-23T18:56:44.649Z,29.27
2022-10-23T18:59:14.952Z,33.08
2022-10-23T19:01:42.383Z,30.83
2022-10-23T19:04:15.830Z,28.00
2022-10-23T19:06:44.980Z,31.10
2022-10-23T19:09:16.553Z,29.17
2022-10-23T19:11:46.552Z,28.60
2022-10-23T19:14:13.990Z,27.02
2022-10-23T19:17:21.818Z,26.70
2022-10-23T19:19:52.541Z,21.70
2022-10-23T19:22:20.246Z,24.25
2022-10-23T19:24:58.048Z,26.08
2022-10-23T19:27:26.333Z,28.83
2022-10-23T19:29:54.584Z,33.50
2022-10-23T19:32:22.543Z,38.45
2022-10-23T19:34:50.935Z,42.70
2022-10-23T19:37:18.213Z,46.70
2022-10-23T19:39:45.520Z,34.45
2022-10-23T19:42:12.768Z,38.55
2022-10-23T19:44:40.012Z,40.67
2022-10-23T19:47:08.069Z,35.47
2022-10-23T19:49:35.425Z,41.70
2022-10-23T19:52:02.670Z,37.63
2022-10-23T19:54:31.552Z,37.78
2022-10-23T19:56:59.470Z,36.35
2022-10-23T19:59:26.824Z,37.88
2022-10-23T20:01:54.158Z,39.15
2022-10-23T20:04:21.437Z,33.22
2022-10-23T20:06:48.684Z,36.83
2022-10-23T20:09:18.705Z,38.20
2022-10-23T20:11:51.272Z,34.40
2022-10-23T20:14:18.859Z,33.22
2022-10-23T20:16:48.605Z,32.08
2022-10-23T20:19:19.588Z,31.75
2022-10-23T20:21:47.977Z,31.45
2022-10-23T20:24:19.379Z,30.73
2022-10-23T20:26:50.456Z,30.15
2022-10-23T20:29:18.544Z,29.85
2022-10-23T20:31:48.473Z,32.85
2022-10-23T20:34:16.056Z,34.75
2022-10-23T20:36:48.698Z,26.08
2022-10-23T20:39:24.578Z,29.27
2022-10-23T20:41:52.238Z,31.02
2022-10-23T20:44:19.822Z,27.02
2022-10-23T20:46:48.781Z,27.83
2022-10-23T20:49:16.433Z,27.85
2022-10-23T20:51:45.440Z,26.02
2022-10-23T20:54:14.197Z,23.10
2022-10-23T20:56:42.443Z,26.45
2022-10-23T20:59:15.022Z,24.13
2022-10-23T21:01:45.100Z,23.30
2022-10-23T21:04:13.935Z,26.63
2022-10-23T21:07:04.495Z,23.20
2022-10-23T21:09:30.303Z,20.95
2022-10-23T21:11:59.113Z,23.65
2022-10-23T21:14:28.884Z,21.80
2022-10-23T21:16:56.918Z,24.52
2022-10-23T21:19:25.163Z,20.58
2022-10-23T21:21:52.576Z,24.50
2022-10-23T21:24:21.377Z,22.60
2022-10-23T21:26:48.677Z,20.50
2022-10-23T21:29:20.174Z,26.60
2022-10-23T21:31:55.599Z,31.13
2022-10-23T21:34:24.434Z,32.60
2022-10-23T21:39:39.390Z,28.42
2022-10-23T21:42:06.658Z,26.35
2022-10-23T21:44:34.693Z,27.08
2022-10-23T21:47:02.208Z,24.15
2022-10-23T21:49:29.778Z,25.75
2022-10-23T21:51:57.176Z,22.45
2022-10-23T21:54:24.416Z,18.67
2022-10-23T21:56:53.820Z,19.40
2022-10-23T21:59:24.372Z,18.20
2022-10-23T22:01:53.194Z,17.10
2022-10-23T22:04:20.630Z,18.70
2022-10-23T22:06:49.802Z,17.40
2022-10-23T22:09:20.181Z,19.13
2022-10-23T22:11:52.665Z,18.05
2022-10-23T22:14:20.021Z,18.58
2022-10-23T22:16:48.345Z,19.45
2022-10-23T22:19:17.123Z,19.92
2022-10-23T22:21:44.744Z,18.85
2022-10-23T22:24:12.762Z,16.65
2022-10-23T22:26:42.941Z,16.17
2022-10-23T22:29:13.206Z,16.80
2022-10-23T22:31:44.224Z,15.48
2022-10-23T22:34:25.357Z,15.10
2022-10-23T22:37:01.758Z,15.70
2022-10-23T22:39:29.104Z,14.70
2022-10-23T22:41:56.483Z,14.18
2022-10-23T22:44:23.967Z,13.60
2022-10-23T22:46:52.550Z,18.58
2022-10-23T22:49:19.989Z,18.10
2022-10-23T22:51:50.108Z,17.30
2022-10-23T22:54:17.658Z,15.90
2022-10-23T22:56:46.971Z,19.52
2022-10-23T22:59:14.293Z,22.23
2022-10-23T23:01:44.370Z,23.45
2022-10-23T23:04:36.627Z,28.70
2022-10-23T23:07:00.361Z,29.58
2022-10-23T23:09:27.581Z,24.13
2022-10-23T23:11:57.902Z,26.92
2022-10-23T23:14:25.363Z,24.55
2022-10-23T23:16:56.409Z,21.10
2022-10-23T23:19:24.312Z,18.70
2022-10-23T23:21:58.315Z,19.02
2022-10-23T23:24:26.758Z,20.52
2022-10-23T23:26:57.906Z,19.77
2022-10-23T23:29:25.267Z,22.10
2022-10-23T23:31:52.818Z,18.48
2022-10-23T23:34:21.253Z,18.55
2022-10-23T23:36:51.047Z,21.92
2022-10-23T23:39:18.461Z,16.42
2022-10-23T23:41:46.150Z,15.88
2022-10-23T23:44:13.525Z,17.10
2022-10-23T23:46:42.842Z,17.90
2022-10-23T23:49:10.133Z,20.23
2022-10-23T23:51:38.024Z,17.40
2022-10-23T23:54:05.600Z,19.98
2022-10-23T23:56:32.959Z,18.60
2022-10-23T23:59:00.411Z,14.95
